Time;durP1;ratioP1;P1;durP2;ratioP2;P2;SDS_P1;SDS_P2;PMS_P1;PMS_P2;Temp;Humidity;BMP_temperature;BMP_pressure;BME280_temperature;BME280_humidity;BME280_pressure;Samples;Min_cycle;Max_cycle;Signal;HPM_P1;HPM_P2
2021/05/26 00:02:00;;;;;;;1.27;1.08;;;23.80;33.20;;;;;;5093495;28;20245;-44
2021/05/26 00:04:26;;;;;;;1.73;1.10;;;23.80;33.20;;;;;;5090315;28;20236;-46
2021/05/26 00:06:52;;;;;;;2.05;1.00;;;23.80;33.30;;;;;;5092010;28;20235;-48
2021/05/26 00:09:18;;;;;;;1.65;1.20;;;23.80;33.40;;;;;;5091176;28;20215;-45
2021/05/26 00:11:44;;;;;;;1.48;1.10;;;23.80;33.30;;;;;;5093479;28;20224;-50
2021/05/26 00:14:10;;;;;;;1.15;1.05;;;23.80;33.30;;;;;;5091848;28;20208;-47
2021/05/26 00:16:37;;;;;;;1.33;1.10;;;23.80;33.30;;;;;;5091916;28;20229;-51
2021/05/26 00:19:03;;;;;;;1.48;1.17;;;23.80;33.40;;;;;;5088250;28;20208;-51
2021/05/26 00:21:30;;;;;;;1.23;1.10;;;23.80;33.40;;;;;;5091806;28;20200;-49
2021/05/26 00:23:56;;;;;;;2.15;1.20;;;23.80;33.50;;;;;;5091173;28;20218;-47
2021/05/26 00:26:22;;;;;;;1.10;0.95;;;23.80;33.60;;;;;;5092713;28;20220;-53
2021/05/26 00:28:48;;;;;;;1.20;1.10;;;23.80;33.60;;;;;;5091671;28;20725;-50
2021/05/26 00:31:20;;;;;;;0.80;0.80;;;23.80;33.60;;;;;;5092443;28;20208;-52
2021/05/26 00:33:46;;;;;;;1.45;1.17;;;23.80;33.60;;;;;;5091760;28;20708;-54
2021/05/26 00:36:12;;;;;;;1.02;1.00;;;23.80;33.70;;;;;;5091320;28;20231;-50
2021/05/26 00:38:38;;;;;;;1.23;1.00;;;23.80;33.70;;;;;;5092279;28;20310;-50
2021/05/26 00:41:04;;;;;;;1.50;1.40;;;23.80;33.70;;;;;;5092159;28;20209;-48
2021/05/26 00:43:30;;;;;;;1.63;1.10;;;23.80;33.70;;;;;;5092048;28;20683;-49
2021/05/26 00:45:56;;;;;;;1.30;1.10;;;23.80;33.60;;;;;;5090202;28;20213;-53
2021/05/26 00:48:22;;;;;;;2.05;1.17;;;23.80;33.60;;;;;;5092122;28;20204;-49
2021/05/26 00:50:48;;;;;;;1.17;1.00;;;23.80;33.60;;;;;;5091719;28;20646;-49
2021/05/26 00:53:14;;;;;;;5.05;1.10;;;23.80;33.60;;;;;;5090288;28;20224;-50
2021/05/26 00:55:40;;;;;;;1.17;1.08;;;23.80;33.60;;;;;;5091562;28;20231;-49
2021/05/26 00:58:06;;;;;;;2.53;1.02;;;23.80;33.60;;;;;;5091099;28;20283;-50
2021/05/26 01:00:32;;;;;;;1.20;1.10;;;23.80;33.60;;;;;;5091118;28;20498;-53
2021/05/26 01:02:58;;;;;;;1.55;0.90;;;23.80;33.60;;;;;;5091895;28;20196;-52
2021/05/26 01:05:24;;;;;;;0.98;0.90;;;23.80;33.60;;;;;;5091246;28;20273;-51
2021/05/26 01:07:51;;;;;;;1.15;0.90;;;23.80;33.60;;;;;;5089019;28;20201;-49
2021/05/26 01:10:17;;;;;;;1.30;1.20;;;23.80;33.70;;;;;;5090509;28;20288;-51
2021/05/26 01:12:43;;;;;;;1.23;1.10;;;23.80;33.70;;;;;;5091274;28;20691;-50
2021/05/26 01:15:09;;;;;;;2.35;1.10;;;23.80;33.70;;;;;;5091084;28;20221;-48
2021/05/26 01:17:35;;;;;;;1.85;1.00;;;23.80;34.10;;;;;;5088931;28;20277;-49
2021/05/26 01:20:01;;;;;;;1.23;1.00;;;23.80;34.30;;;;;;5089962;28;20657;-53
2021/05/26 01:22:27;;;;;;;1.98;1.00;;;23.80;34.20;;;;;;5091342;28;20273;-47
2021/05/26 01:24:54;;;;;;;2.03;1.00;;;23.80;34.30;;;;;;5090180;28;20688;-49
2021/05/26 01:27:20;;;;;;;1.15;1.05;;;23.80;34.20;;;;;;5089075;28;20292;-49
2021/05/26 01:29:46;;;;;;;0.98;0.90;;;23.80;34.30;;;;;;5091966;28;20795;-52
2021/05/26 01:32:12;;;;;;;1.20;1.10;;;23.70;34.30;;;;;;5090352;28;20220;-50
2021/05/26 01:34:38;;;;;;;1.60;1.20;;;23.80;34.30;;;;;;5091442;28;20250;-47
2021/05/26 01:37:04;;;;;;;1.27;0.88;;;23.80;34.40;;;;;;5090043;28;20728;-53
2021/05/26 01:39:30;;;;;;;1.83;1.10;;;23.80;34.40;;;;;;5090728;28;20200;-52
2021/05/26 01:41:56;;;;;;;1.35;1.20;;;23.70;34.40;;;;;;5090604;28;20211;-50
2021/05/26 01:44:22;;;;;;;2.85;1.00;;;23.80;34.50;;;;;;5090274;28;20205;-52
2021/05/26 01:46:48;;;;;;;1.30;1.20;;;23.70;34.60;;;;;;5091620;28;20215;-52
2021/05/26 01:49:14;;;;;;;1.00;1.00;;;23.80;34.60;;;;;;5088983;28;20586;-52
2021/05/26 01:51:40;;;;;;;2.40;1.30;;;23.80;34.70;;;;;;5091842;28;20257;-50
2021/05/26 01:54:06;;;;;;;1.13;0.85;;;23.80;34.80;;;;;;5088851;28;20204;-50
2021/05/26 01:56:33;;;;;;;1.00;0.90;;;23.80;34.80;;;;;;5091218;28;20629;-51
2021/05/26 01:58:59;;;;;;;1.33;1.10;;;23.80;34.90;;;;;;5089472;28;20207;-52
2021/05/26 02:01:25;;;;;;;2.42;1.10;;;23.70;35.00;;;;;;5090532;28;20720;-50
2021/05/26 02:03:51;;;;;;;1.67;1.08;;;23.70;34.90;;;;;;5088682;28;20223;-50
2021/05/26 02:06:17;;;;;;;1.27;1.10;;;23.70;34.90;;;;;;5087560;28;20227;-48
2021/05/26 02:08:43;;;;;;;1.90;1.00;;;23.70;34.80;;;;;;5089425;28;20247;-50
2021/05/26 02:13:54;;;;;;;1.70;0.90;;;23.80;34.70;;;;;;5080928;28;20234;-53
2021/05/26 02:16:20;;;;;;;0.90;0.90;;;23.80;34.70;;;;;;5090696;28;20212;-50
2021/05/26 02:18:46;;;;;;;1.73;0.90;;;23.70;34.60;;;;;;5088547;28;20671;-49
2021/05/26 02:21:12;;;;;;;2.22;0.90;;;23.70;34.70;;;;;;5083875;28;20236;-51
2021/05/26 02:23:38;;;;;;;1.20;1.10;;;23.80;34.70;;;;;;5087474;28;20208;-51
2021/05/26 02:26:04;;;;;;;1.42;1.00;;;23.80;34.80;;;;;;5092513;28;20220;-50
2021/05/26 02:28:29;;;;;;;1.40;1.10;;;23.70;34.70;;;;;;5091889;28;20200;-52
2021/05/26 02:30:55;;;;;;;1.27;0.90;;;23.70;34.70;;;;;;5071091;28;20201;-47
2021/05/26 02:33:21;;;;;;;4.07;1.33;;;23.80;34.80;;;;;;5087855;28;20236;-48
2021/05/26 02:35:48;;;;;;;1.38;0.88;;;23.80;34.80;;;;;;5090722;28;20212;-46
2021/05/26 02:38:14;;;;;;;1.75;0.82;;;23.70;34.70;;;;;;5089889;28;20196;-47
2021/05/26 02:40:40;;;;;;;1.35;1.10;;;23.80;34.90;;;;;;5090867;28;20196;-47
2021/05/26 02:43:06;;;;;;;1.23;0.88;;;23.70;34.80;;;;;;5089104;28;20556;-47
2021/05/26 02:45:32;;;;;;;1.42;1.10;;;23.70;34.70;;;;;;5091155;28;20231;-49
2021/05/26 02:47:58;;;;;;;1.58;1.00;;;23.70;34.80;;;;;;5089630;28;20196;-47
2021/05/26 02:50:24;;;;;;;1.27;1.00;;;23.70;34.80;;;;;;5091130;28;20734;-48
2021/05/26 02:52:51;;;;;;;1.40;1.00;;;23.80;34.90;;;;;;5088823;28;20224;-48
2021/05/26 02:55:17;;;;;;;0.90;0.90;;;23.70;34.80;;;;;;5090900;28;20299;-46
2021/05/26 02:57:43;;;;;;;1.70;1.00;;;23.70;34.80;;;;;;5086512;28;20204;-51
2021/05/26 03:00:09;;;;;;;1.15;1.00;;;23.70;34.80;;;;;;5090184;28;20656;-48
2021/05/26 03:02:35;;;;;;;1.08;0.98;;;23.70;34.90;;;;;;5089785;28;20204;-48
2021/05/26 03:05:01;;;;;;;1.27;0.90;;;23.70;34.90;;;;;;5090162;28;20220;-49
2021/05/26 03:07:27;;;;;;;1.33;0.95;;;23.70;34.90;;;;;;5088712;28;20724;-49
2021/05/26 03:09:53;;;;;;;0.93;0.85;;;23.80;35.00;;;;;;5091819;28;20204;-48
2021/05/26 03:12:19;;;;;;;0.95;0.95;;;23.80;35.00;;;;;;5092661;28;20228;-50
2021/05/26 03:14:45;;;;;;;1.48;1.00;;;23.70;35.10;;;;;;5092571;28;20224;-52
2021/05/26 03:17:11;;;;;;;1.15;0.90;;;23.70;35.00;;;;;;5093563;28;20200;-50
2021/05/26 03:19:37;;;;;;;1.38;1.00;;;23.70;35.10;;;;;;5093513;28;20726;-46
2021/05/26 03:22:03;;;;;;;1.48;1.02;;;23.70;35.10;;;;;;5093430;28;20208;-52
2021/05/26 03:24:29;;;;;;;0.82;0.82;;;23.70;35.10;;;;;;5092058;28;20204;-51
2021/05/26 03:26:55;;;;;;;1.63;1.17;;;23.80;35.40;;;;;;5091291;28;20200;-46
2021/05/26 03:29:21;;;;;;;2.17;1.08;;;23.70;35.20;;;;;;5092519;28;20201;-52
2021/05/26 03:31:47;;;;;;;1.40;1.00;;;23.70;35.10;;;;;;5093725;28;20201;-51
2021/05/26 03:34:13;;;;;;;0.93;0.80;;;23.70;35.10;;;;;;5090555;28;20388;-47
2021/05/26 03:36:38;;;;;;;1.08;0.98;;;23.70;35.10;;;;;;5092234;28;20224;-52
2021/05/26 03:39:04;;;;;;;1.60;1.00;;;23.70;35.00;;;;;;5093073;28;20208;-50
2021/05/26 03:41:30;;;;;;;0.82;0.82;;;23.70;35.10;;;;;;5092996;28;20197;-50
2021/05/26 03:43:56;;;;;;;1.10;1.00;;;23.70;35.10;;;;;;5093033;28;20531;-47
2021/05/26 03:46:24;;;;;;;1.30;0.90;;;23.70;35.10;;;;;;5092681;28;20240;-51
2021/05/26 03:48:50;;;;;;;0.80;0.80;;;23.70;35.20;;;;;;5092587;28;20188;-49
2021/05/26 03:51:16;;;;;;;1.08;0.88;;;23.70;35.20;;;;;;5089467;28;20207;-50
2021/05/26 03:53:42;;;;;;;0.90;0.90;;;23.70;35.20;;;;;;5093196;28;20235;-52
2021/05/26 03:56:08;;;;;;;0.98;0.88;;;23.70;35.20;;;;;;5093417;28;20220;-47
2021/05/26 03:58:35;;;;;;;1.10;0.95;;;23.70;35.10;;;;;;5092417;28;20207;-49
2021/05/26 04:01:01;;;;;;;1.05;0.90;;;23.70;35.20;;;;;;5093521;28;20300;-51
2021/05/26 04:03:27;;;;;;;3.30;1.33;;;23.70;35.20;;;;;;5092157;28;20656;-51
2021/05/26 04:05:53;;;;;;;1.92;1.15;;;23.70;35.30;;;;;;5092956;28;20277;-48
2021/05/26 04:08:19;;;;;;;1.00;0.90;;;23.70;35.20;;;;;;5089806;28;20540;-47
2021/05/26 04:10:45;;;;;;;1.05;0.95;;;23.70;35.20;;;;;;5091327;28;20634;-51
2021/05/26 04:13:11;;;;;;;2.33;1.13;;;23.70;35.30;;;;;;5092423;28;20224;-50
2021/05/26 04:15:38;;;;;;;1.67;0.90;;;23.70;35.30;;;;;;5092481;28;20231;-47
2021/05/26 04:18:04;;;;;;;1.15;1.08;;;23.70;35.40;;;;;;5090198;28;20200;-47
2021/05/26 04:20:30;;;;;;;1.75;0.80;;;23.70;35.40;;;;;;5091520;28;20208;-49
2021/05/26 04:22:56;;;;;;;0.82;0.82;;;23.70;35.60;;;;;;5090944;28;20310;-49
2021/05/26 04:25:22;;;;;;;0.80;0.80;;;23.70;35.30;;;;;;5092287;28;20216;-49
2021/05/26 04:27:48;;;;;;;1.25;0.93;;;23.70;35.00;;;;;;5091720;28;20317;-48
2021/05/26 04:30:14;;;;;;;1.95;1.10;;;23.70;34.90;;;;;;5091113;28;20306;-48
2021/05/26 04:32:40;;;;;;;1.40;1.30;;;23.80;35.10;;;;;;5090048;28;20334;-49
2021/05/26 04:35:06;;;;;;;1.00;0.90;;;23.70;34.80;;;;;;5092343;28;20236;-51
2021/05/26 04:37:32;;;;;;;0.90;0.90;;;23.70;34.80;;;;;;5091386;28;20650;-51
2021/05/26 04:39:58;;;;;;;1.08;1.00;;;23.80;34.80;;;;;;5092328;28;20313;-47
2021/05/26 04:42:24;;;;;;;1.00;0.90;;;23.80;34.80;;;;;;5091439;28;20223;-48
2021/05/26 04:44:50;;;;;;;1.42;0.85;;;23.80;34.70;;;;;;5092206;28;20327;-49
2021/05/26 04:47:16;;;;;;;1.95;0.90;;;23.80;34.70;;;;;;5091783;28;20377;-48
2021/05/26 04:49:42;;;;;;;1.10;1.00;;;23.80;34.70;;;;;;5092223;28;20220;-50
2021/05/26 04:52:08;;;;;;;1.10;0.93;;;23.80;34.70;;;;;;5091652;28;20250;-47
2021/05/26 04:54:34;;;;;;;1.13;0.95;;;23.80;34.70;;;;;;5091410;28;20224;-51
2021/05/26 04:57:00;;;;;;;0.90;0.90;;;23.80;34.70;;;;;;5091291;28;20648;-50
2021/05/26 04:59:26;;;;;;;1.25;0.90;;;23.80;34.70;;;;;;5091346;28;20196;-48
2021/05/26 05:01:52;;;;;;;1.23;0.80;;;23.80;34.60;;;;;;5090502;28;20200;-51
2021/05/26 05:04:18;;;;;;;0.90;0.90;;;23.80;34.60;;;;;;5090659;28;20254;-50
2021/05/26 05:06:44;;;;;;;1.02;0.93;;;23.80;34.60;;;;;;5092276;28;20238;-48
2021/05/26 05:09:10;;;;;;;1.20;1.00;;;23.70;34.50;;;;;;5091309;28;20262;-50
2021/05/26 05:11:36;;;;;;;1.10;1.00;;;23.80;34.60;;;;;;5090685;28;20258;-48
2021/05/26 05:14:02;;;;;;;0.85;0.85;;;23.80;34.60;;;;;;5091057;28;20224;-47
2021/05/26 05:16:28;;;;;;;1.00;0.98;;;23.80;34.50;;;;;;5090018;28;20258;-47
2021/05/26 05:18:54;;;;;;;1.00;0.90;;;23.80;34.50;;;;;;5090721;28;20196;-51
2021/05/26 05:21:20;;;;;;;1.33;1.05;;;23.80;34.50;;;;;;5090599;28;20196;-50
2021/05/26 05:23:46;;;;;;;0.82;0.82;;;23.80;34.50;;;;;;5084904;28;20201;-45
2021/05/26 05:26:12;;;;;;;1.00;0.90;;;23.80;34.50;;;;;;5079319;28;20226;-49
2021/05/26 05:28:38;;;;;;;1.20;1.10;;;23.80;34.50;;;;;;5089374;28;20196;-50
2021/05/26 05:31:04;;;;;;;1.35;0.80;;;23.80;34.50;;;;;;5090865;28;20500;-50
2021/05/26 05:33:30;;;;;;;0.90;0.90;;;23.80;34.50;;;;;;5086716;28;20228;-52
2021/05/26 05:35:56;;;;;;;1.02;0.93;;;23.80;34.50;;;;;;5090742;28;20235;-48
2021/05/26 05:38:22;;;;;;;1.63;0.85;;;23.80;34.40;;;;;;5091911;28;20197;-48
2021/05/26 05:40:48;;;;;;;0.90;0.90;;;23.80;34.40;;;;;;5089741;28;20978;-49
2021/05/26 05:43:14;;;;;;;0.90;0.90;;;23.80;34.40;;;;;;5090082;28;20254;-50
2021/05/26 05:45:40;;;;;;;1.88;1.17;;;23.80;34.60;;;;;;5091533;28;20216;-46
2021/05/26 05:48:06;;;;;;;1.45;1.05;;;23.80;35.00;;;;;;5090256;28;20625;-49
2021/05/26 05:50:32;;;;;;;1.55;1.02;;;23.80;35.70;;;;;;5085964;28;20287;-52
2021/05/26 05:52:59;;;;;;;1.45;1.05;;;23.80;36.00;;;;;;5088840;28;20223;-49
2021/05/26 05:55:25;;;;;;;1.25;1.05;;;23.70;36.30;;;;;;5089432;28;20530;-51
2021/05/26 05:57:53;;;;;;;3.15;1.13;;;23.80;36.60;;;;;;5090466;28;20230;-48
2021/05/26 06:00:19;;;;;;;2.53;1.40;;;23.80;37.40;;;;;;5089745;28;20197;-57
2021/05/26 06:02:45;;;;;;;3.30;1.20;;;23.80;37.00;;;;;;5088482;28;20204;-50
2021/05/26 06:05:11;;;;;;;2.95;1.10;;;23.80;37.90;;;;;;5086187;28;20301;-50
2021/05/26 06:07:37;;;;;;;4.10;1.05;;;23.80;36.10;;;;;;5089924;28;20205;-46
2021/05/26 06:10:04;;;;;;;2.78;1.35;;;23.80;36.80;;;;;;5089482;28;20200;-51
2021/05/26 06:12:30;;;;;;;2.15;1.25;;;23.80;37.90;;;;;;5089219;28;20253;-55
2021/05/26 06:14:56;;;;;;;4.18;1.67;;;23.70;38.20;;;;;;5087439;28;20223;-45
2021/05/26 06:17:22;;;;;;;6.07;1.65;;;23.70;38.90;;;;;;5088917;28;20648;-47
2021/05/26 06:19:48;;;;;;;3.53;1.45;;;23.70;39.10;;;;;;5089162;28;20204;-48
2021/05/26 06:22:14;;;;;;;2.90;1.63;;;23.70;39.20;;;;;;5089742;28;20265;-51
2021/05/26 06:24:40;;;;;;;8.93;2.85;;;23.70;39.00;;;;;;5089371;28;20224;-49
2021/05/26 06:27:06;;;;;;;2.42;1.30;;;22.70;33.30;;;;;;5088199;28;20197;-52
2021/05/26 06:29:32;;;;;;;2.83;1.23;;;22.30;28.60;;;;;;5090722;28;20656;-48
2021/05/26 06:31:58;;;;;;;2.05;1.20;;;22.20;29.50;;;;;;5088203;28;20193;-47
2021/05/26 06:34:24;;;;;;;1.67;1.00;;;22.50;29.00;;;;;;5089727;28;20216;-54
2021/05/26 06:36:50;;;;;;;1.27;1.17;;;22.70;28.60;;;;;;5089316;28;20204;-50
2021/05/26 06:39:16;;;;;;;1.60;1.00;;;23.00;29.20;;;;;;5089147;28;20204;-49
2021/05/26 06:41:42;;;;;;;2.10;1.25;;;23.10;30.50;;;;;;5089812;28;20219;-47
2021/05/26 06:44:07;;;;;;;2.03;0.93;;;23.20;32.20;;;;;;5088634;28;20752;-48
2021/05/26 06:46:33;;;;;;;1.00;0.90;;;23.30;32.60;;;;;;5093840;28;20196;-49
2021/05/26 06:48:59;;;;;;;0.95;0.88;;;23.40;33.10;;;;;;5094444;28;20197;-46
2021/05/26 06:51:26;;;;;;;1.95;1.17;;;23.40;33.30;;;;;;5092115;28;20223;-51
2021/05/26 06:53:52;;;;;;;2.08;1.13;;;23.50;33.60;;;;;;5094008;28;20574;-46
2021/05/26 06:56:18;;;;;;;1.50;1.00;;;23.50;34.10;;;;;;5085924;28;20219;-51
2021/05/26 06:58:44;;;;;;;1.38;0.90;;;23.60;34.40;;;;;;5093009;28;20235;-47
2021/05/26 07:01:10;;;;;;;3.28;1.20;;;23.70;35.40;;;;;;5090093;28;20238;-50
2021/05/26 07:03:36;;;;;;;1.83;1.08;;;23.80;34.90;;;;;;5091306;28;20260;-46
2021/05/26 07:06:02;;;;;;;2.78;1.00;;;23.80;34.30;;;;;;5092665;28;20208;-47
2021/05/26 07:08:29;;;;;;;1.90;0.90;;;23.80;34.70;;;;;;5089275;28;20204;-46
2021/05/26 07:10:55;;;;;;;2.45;1.05;;;23.90;35.00;;;;;;5091391;28;20211;-47
2021/05/26 07:13:21;;;;;;;1.00;0.90;;;23.90;34.80;;;;;;5090172;28;20232;-49
2021/05/26 07:15:47;;;;;;;1.95;1.13;;;23.90;35.20;;;;;;5094249;28;20265;-49
2021/05/26 07:18:13;;;;;;;3.50;0.90;;;23.90;35.00;;;;;;5091390;28;20722;-52
2021/05/26 07:20:43;;;;;;;1.80;1.05;;;23.90;35.80;;;;;;5084203;28;20201;-47
2021/05/26 07:23:09;;;;;;;2.15;1.08;;;23.90;35.70;;;;;;5092187;28;20733;-51
2021/05/26 07:25:35;;;;;;;0.80;0.80;;;23.80;34.30;;;;;;5092563;28;20223;-51
2021/05/26 07:28:01;;;;;;;1.38;0.82;;;23.80;34.50;;;;;;5090306;28;20213;-51
2021/05/26 07:30:27;;;;;;;1.80;0.77;;;23.80;34.30;;;;;;5091635;28;20201;-50
2021/05/26 07:32:53;;;;;;;1.00;1.00;;;23.90;34.50;;;;;;5090876;28;20235;-48
2021/05/26 07:35:19;;;;;;;1.00;0.80;;;23.90;34.70;;;;;;5092055;28;20327;-52
2021/05/26 07:37:45;;;;;;;1.00;0.90;;;23.80;34.80;;;;;;5092263;28;20209;-49
2021/05/26 07:40:11;;;;;;;1.52;0.70;;;23.80;35.10;;;;;;5089799;28;20268;-53
2021/05/26 07:42:37;;;;;;;2.08;1.00;;;23.90;35.40;;;;;;5081732;28;20205;-50
2021/05/26 07:45:03;;;;;;;2.20;0.90;;;23.80;35.10;;;;;;5087849;28;20290;-50
2021/05/26 07:47:29;;;;;;;1.48;0.90;;;23.80;33.00;;;;;;5089934;28;20192;-51
2021/05/26 07:49:55;;;;;;;2.35;1.38;;;23.80;33.00;;;;;;5089842;28;20242;-55
2021/05/26 07:52:21;;;;;;;2.33;0.90;;;23.80;33.80;;;;;;5085928;28;20688;-58
2021/05/26 07:54:47;;;;;;;2.40;1.00;;;23.80;34.00;;;;;;5089794;28;20258;-52
2021/05/26 07:57:13;;;;;;;1.10;1.00;;;23.90;34.50;;;;;;5090695;28;20208;-54
2021/05/26 07:59:39;;;;;;;1.25;1.10;;;23.90;35.40;;;;;;5092459;28;20208;-53
2021/05/26 08:02:05;;;;;;;2.03;1.00;;;23.90;34.80;;;;;;5087936;28;20250;-48
2021/05/26 08:04:31;;;;;;;2.95;1.10;;;24.00;35.00;;;;;;5091527;28;20228;-50
2021/05/26 08:06:57;;;;;;;1.55;1.00;;;23.90;34.70;;;;;;5084963;28;20223;-52
2021/05/26 08:09:23;;;;;;;4.13;1.10;;;23.90;35.00;;;;;;5089424;28;20208;-51
2021/05/26 08:11:49;;;;;;;3.53;1.27;;;23.90;36.00;;;;;;5092899;28;20707;-54
2021/05/26 08:14:15;;;;;;;3.90;1.13;;;23.90;34.60;;;;;;5092604;28;20260;-49
2021/05/26 08:16:41;;;;;;;2.40;1.00;;;23.90;34.60;;;;;;5093379;28;20200;-50
2021/05/26 08:19:07;;;;;;;1.63;0.98;;;23.90;35.60;;;;;;5093331;28;20196;-51
2021/05/26 08:21:33;;;;;;;2.13;0.90;;;23.80;34.90;;;;;;5093564;28;20328;-54
2021/05/26 08:23:59;;;;;;;1.55;1.23;;;23.80;35.00;;;;;;5092662;28;20432;-51
2021/05/26 08:26:25;;;;;;;2.42;0.90;;;23.80;35.10;;;;;;5092769;28;20204;-51
2021/05/26 08:28:52;;;;;;;1.55;1.13;;;23.80;35.10;;;;;;5091125;28;20317;-53
2021/05/26 08:31:18;;;;;;;1.85;0.88;;;23.80;35.10;;;;;;5081345;28;20216;-53
2021/05/26 08:33:44;;;;;;;1.52;1.05;;;23.80;35.10;;;;;;5092035;28;20719;-54
2021/05/26 08:36:10;;;;;;;0.80;0.80;;;23.80;35.10;;;;;;5093223;28;20207;-50
2021/05/26 08:38:36;;;;;;;2.22;1.10;;;23.80;35.10;;;;;;5092394;28;20200;-54
2021/05/26 08:41:02;;;;;;;0.90;0.90;;;23.80;35.10;;;;;;5091042;28;20205;-50
2021/05/26 08:43:28;;;;;;;1.58;1.10;;;23.80;35.10;;;;;;5077763;28;20205;-49
2021/05/26 08:45:54;;;;;;;1.30;0.90;;;23.80;35.20;;;;;;5091591;28;20200;-48
2021/05/26 08:48:20;;;;;;;0.88;0.80;;;23.80;35.20;;;;;;5092865;28;20200;-51
2021/05/26 08:50:46;;;;;;;1.35;1.02;;;23.80;35.30;;;;;;5092765;28;20265;-49
2021/05/26 08:53:12;;;;;;;1.40;0.90;;;23.80;35.30;;;;;;5091856;28;20716;-52
2021/05/26 08:55:38;;;;;;;1.10;1.00;;;23.80;35.30;;;;;;5092537;28;20610;-50
2021/05/26 08:58:04;;;;;;;1.20;1.10;;;23.80;36.20;;;;;;5092518;28;20242;-48
2021/05/26 09:00:30;;;;;;;2.13;0.90;;;23.80;35.50;;;;;;5092732;28;20253;-50
2021/05/26 09:02:56;;;;;;;1.10;0.90;;;23.80;35.60;;;;;;5092629;28;20287;-50
2021/05/26 09:05:22;;;;;;;3.17;1.10;;;23.80;35.60;;;;;;5091883;28;20761;-51
2021/05/26 09:07:48;;;;;;;2.08;1.02;;;23.80;35.70;;;;;;5091836;28;20204;-50
2021/05/26 09:10:14;;;;;;;1.10;0.90;;;23.80;36.60;;;;;;5092752;28;20200;-52
2021/05/26 09:12:41;;;;;;;1.80;1.10;;;23.80;36.00;;;;;;5092117;28;20301;-52
2021/05/26 09:15:08;;;;;;;1.27;1.02;;;23.80;36.00;;;;;;5091785;28;20220;-50
2021/05/26 09:17:34;;;;;;;1.55;0.85;;;23.80;36.00;;;;;;5083251;28;20254;-49
2021/05/26 09:20:00;;;;;;;1.95;0.90;;;23.80;36.00;;;;;;5089877;28;20660;-51
2021/05/26 09:22:26;;;;;;;1.83;1.00;;;23.70;36.20;;;;;;5092496;28;20200;-49
2021/05/26 09:24:52;;;;;;;1.30;1.00;;;23.70;36.30;;;;;;5091434;28;20219;-51
2021/05/26 09:27:17;;;;;;;1.20;1.08;;;23.70;36.30;;;;;;5092214;28;20200;-50
2021/05/26 09:29:45;;;;;;;2.70;1.00;;;23.70;36.40;;;;;;5091877;28;20197;-49
2021/05/26 09:32:11;;;;;;;1.00;1.00;;;23.70;36.30;;;;;;5091798;28;20283;-50
2021/05/26 09:34:37;;;;;;;1.63;1.10;;;23.70;36.30;;;;;;5091718;28;20217;-49
2021/05/26 09:37:03;;;;;;;1.05;0.80;;;23.70;36.30;;;;;;5091930;28;20232;-49
2021/05/26 09:39:29;;;;;;;1.15;0.90;;;23.70;36.30;;;;;;5091850;28;20200;-50
2021/05/26 09:41:55;;;;;;;1.80;0.90;;;23.70;36.20;;;;;;5091812;28;20208;-53
2021/05/26 09:44:21;;;;;;;1.00;0.82;;;23.70;36.10;;;;;;5091048;28;20224;-50
2021/05/26 09:46:47;;;;;;;0.75;0.75;;;23.70;35.90;;;;;;5090729;28;20240;-50
2021/05/26 09:49:15;;;;;;;2.33;0.90;;;23.70;35.70;;;;;;5090245;28;20611;-50
2021/05/26 09:51:41;;;;;;;0.90;0.90;;;23.80;35.90;;;;;;5091700;28;20208;-52
2021/05/26 09:54:07;;;;;;;0.90;0.90;;;23.80;35.80;;;;;;5090944;28;20236;-52
2021/05/26 09:56:33;;;;;;;1.65;0.90;;;23.80;35.70;;;;;;5091216;28;20288;-51
2021/05/26 09:58:59;;;;;;;1.25;1.00;;;23.80;35.60;;;;;;5091477;28;20200;-51
2021/05/26 10:01:25;;;;;;;2.25;0.90;;;23.80;35.60;;;;;;5091500;28;20208;-51
2021/05/26 10:03:52;;;;;;;1.05;0.80;;;23.80;35.60;;;;;;5091104;28;20524;-49
2021/05/26 10:06:17;;;;;;;1.58;1.00;;;23.80;35.50;;;;;;5090941;28;20691;-48
2021/05/26 10:08:43;;;;;;;1.00;0.90;;;23.80;35.40;;;;;;5091486;28;20200;-49
2021/05/26 10:11:10;;;;;;;1.48;1.20;;;23.80;35.30;;;;;;5088533;28;20294;-53
2021/05/26 10:13:36;;;;;;;4.95;1.20;;;23.80;35.40;;;;;;5082518;28;20231;-59
2021/05/26 10:16:02;;;;;;;2.75;1.00;;;23.80;35.60;;;;;;5084675;28;20648;-58
2021/05/26 10:18:31;;;;;;;2.80;1.10;;;23.90;35.60;;;;;;5088953;28;20649;-58
2021/05/26 10:20:57;;;;;;;1.00;0.85;;;23.90;35.80;;;;;;5085888;28;20614;-54
2021/05/26 10:23:23;;;;;;;2.72;1.25;;;23.90;36.40;;;;;;5082973;28;20224;-49
2021/05/26 10:25:53;;;;;;;1.88;1.02;;;23.90;35.50;;;;;;5088755;28;20239;-60
2021/05/26 10:28:19;;;;;;;2.47;0.80;;;23.90;35.90;;;;;;5086624;28;20211;-50
2021/05/26 10:30:45;;;;;;;1.17;0.90;;;24.00;35.30;;;;;;5092812;28;20228;-60
2021/05/26 10:33:11;;;;;;;1.02;0.80;;;24.00;35.20;;;;;;5087357;28;20232;-66
2021/05/26 10:35:37;;;;;;;1.25;0.80;;;24.00;35.30;;;;;;5089597;28;20196;-62
2021/05/26 10:38:04;;;;;;;0.95;0.90;;;24.00;35.40;;;;;;5080174;28;20204;-47
2021/05/26 10:40:31;;;;;;;4.13;1.00;;;24.00;35.50;;;;;;5085351;28;20201;-57
2021/05/26 10:42:57;;;;;;;1.58;0.70;;;24.00;35.50;;;;;;5087297;28;20207;-59
2021/05/26 10:45:23;;;;;;;2.15;0.95;;;24.00;35.40;;;;;;5090069;28;20208;-52
2021/05/26 10:47:49;;;;;;;3.25;1.10;;;24.00;35.90;;;;;;5087229;28;20200;-48
2021/05/26 10:50:15;;;;;;;2.63;1.00;;;24.00;36.00;;;;;;5085993;28;20668;-49
2021/05/26 10:52:41;;;;;;;1.55;1.00;;;24.00;36.30;;;;;;5086174;28;20220;-49
2021/05/26 10:55:07;;;;;;;1.17;0.80;;;24.00;36.90;;;;;;5088451;28;20269;-48
2021/05/26 10:57:33;;;;;;;1.17;0.82;;;24.00;36.30;;;;;;5088743;28;20288;-45
2021/05/26 10:59:59;;;;;;;2.72;0.90;;;24.00;36.80;;;;;;5084868;28;20644;-53
2021/05/26 11:02:25;;;;;;;1.27;1.17;;;24.00;36.80;;;;;;5088764;28;20222;-54
2021/05/26 11:04:51;;;;;;;2.35;1.10;;;24.00;36.70;;;;;;5088801;28;20697;-54
2021/05/26 11:07:17;;;;;;;1.40;0.90;;;24.00;36.70;;;;;;5089803;28;20203;-52
2021/05/26 11:09:43;;;;;;;0.90;0.90;;;23.90;36.30;;;;;;5082468;28;20251;-53
2021/05/26 11:12:09;;;;;;;3.08;1.05;;;23.90;36.40;;;;;;5084656;28;20201;-53
2021/05/26 11:14:35;;;;;;;1.02;0.85;;;23.90;36.60;;;;;;5089974;28;20647;-54
2021/05/26 11:17:02;;;;;;;2.30;0.82;;;23.90;36.50;;;;;;5087943;28;20228;-53
2021/05/26 11:19:28;;;;;;;2.78;0.90;;;23.90;36.30;;;;;;5087895;28;20630;-50
2021/05/26 11:21:54;;;;;;;1.40;1.30;;;23.90;36.60;;;;;;5085529;28;20280;-54
2021/05/26 11:24:20;;;;;;;0.90;0.90;;;23.90;36.40;;;;;;5089832;28;20586;-52
2021/05/26 11:26:46;;;;;;;0.88;0.80;;;23.90;36.30;;;;;;5089434;28;20261;-52
2021/05/26 11:29:12;;;;;;;1.00;0.90;;;23.90;36.40;;;;;;5086765;28;20656;-54
2021/05/26 11:31:39;;;;;;;0.85;0.70;;;23.90;36.50;;;;;;5090404;28;20204;-51
2021/05/26 11:34:07;;;;;;;0.93;0.80;;;23.90;36.20;;;;;;5092770;28;20231;-51
2021/05/26 11:36:33;;;;;;;0.73;0.73;;;23.90;36.30;;;;;;5094394;28;20577;-52
2021/05/26 11:38:59;;;;;;;1.00;0.90;;;23.90;36.30;;;;;;5088692;28;20258;-52
2021/05/26 11:41:25;;;;;;;0.95;0.90;;;23.90;36.30;;;;;;5086450;28;20209;-52
2021/05/26 11:43:51;;;;;;;1.77;0.90;;;23.90;36.30;;;;;;5075008;28;20225;-52
2021/05/26 11:46:17;;;;;;;1.10;0.90;;;23.90;36.30;;;;;;5073849;28;20196;-54
2021/05/26 11:48:43;;;;;;;1.27;0.80;;;23.90;36.20;;;;;;5091499;28;20197;-50
2021/05/26 11:51:09;;;;;;;1.60;0.80;;;23.90;36.20;;;;;;5093112;28;20200;-54
2021/05/26 11:53:35;;;;;;;0.95;0.80;;;23.90;36.30;;;;;;5091979;28;20297;-50
2021/05/26 11:56:02;;;;;;;1.33;0.90;;;23.90;36.20;;;;;;5091477;28;20226;-54
2021/05/26 11:58:28;;;;;;;0.85;0.82;;;23.90;36.30;;;;;;5093553;28;20204;-52
2021/05/26 12:00:54;;;;;;;0.82;0.80;;;23.90;36.30;;;;;;5091921;28;20208;-49
2021/05/26 12:03:20;;;;;;;0.73;0.73;;;23.90;36.40;;;;;;5089402;28;20217;-50
2021/05/26 12:05:47;;;;;;;0.75;0.75;;;23.90;36.20;;;;;;5091445;28;20200;-54
2021/05/26 12:08:13;;;;;;;1.70;1.00;;;23.90;36.20;;;;;;5090779;28;20197;-52
2021/05/26 12:10:39;;;;;;;1.20;0.90;;;23.90;36.30;;;;;;5090656;28;20648;-52
2021/05/26 12:13:05;;;;;;;1.30;0.95;;;23.90;36.30;;;;;;5088800;28;20235;-55
2021/05/26 12:15:31;;;;;;;1.58;0.80;;;23.90;36.30;;;;;;5086727;28;20204;-54
2021/05/26 12:17:57;;;;;;;1.13;1.00;;;23.90;36.40;;;;;;5092668;28;20192;-54
2021/05/26 12:20:23;;;;;;;0.80;0.80;;;23.90;36.30;;;;;;5093514;28;20216;-51
2021/05/26 12:22:50;;;;;;;0.80;0.80;;;23.90;36.30;;;;;;5088471;28;20220;-54
2021/05/26 12:25:16;;;;;;;1.25;0.82;;;23.90;36.40;;;;;;5091626;28;20211;-50
2021/05/26 12:27:43;;;;;;;1.55;0.90;;;23.90;36.30;;;;;;5088978;28;20200;-50
2021/05/26 12:30:09;;;;;;;1.67;0.93;;;23.90;36.30;;;;;;5091841;28;20197;-52
2021/05/26 12:32:35;;;;;;;1.60;0.98;;;23.90;36.20;;;;;;5092241;28;20228;-51
2021/05/26 12:35:01;;;;;;;3.58;1.10;;;23.90;36.40;;;;;;5091112;28;20208;-51
2021/05/26 12:37:27;;;;;;;1.67;1.00;;;23.90;36.50;;;;;;5093284;28;20200;-55
2021/05/26 12:39:53;;;;;;;1.88;1.00;;;23.90;36.30;;;;;;5091516;28;20201;-52
2021/05/26 12:42:19;;;;;;;2.50;0.80;;;23.90;36.40;;;;;;5091781;28;20579;-52
2021/05/26 12:44:45;;;;;;;1.27;0.90;;;23.90;36.30;;;;;;5089724;28;20216;-54